sensor_id;sensor_type;location;lat;lon;timestamp;temperature;humidity
12588;DHT22;6359;51.450;7.346;2023-02-21T00:01:27;7.80;99.90
12588;DHT22;6359;51.450;7.346;2023-02-21T00:04:11;7.70;99.90
12588;DHT22;6359;51.450;7.346;2023-02-21T00:06:55;7.80;99.90
12588;DHT22;6359;51.450;7.346;2023-02-21T00:09:41;7.80;99.90
12588;DHT22;6359;51.450;7.346;2023-02-21T00:12:26;7.70;99.90
12588;DHT22;6359;51.450;7.346;2023-02-21T00:15:10;7.80;99.90
12588;DHT22;6359;51.450;7.346;2023-02-21T00:17:55;7.70;99.90
12588;DHT22;6359;51.450;7.346;2023-02-21T00:20:39;7.70;99.90
12588;DHT22;6359;51.450;7.346;2023-02-21T00:23:23;7.70;99.90
12588;DHT22;6359;51.450;7.346;2023-02-21T00:26:08;7.70;99.90
12588;DHT22;6359;51.450;7.346;2023-02-21T00:29:14;7.60;99.90
12588;DHT22;6359;51.450;7.346;2023-02-21T00:31:58;7.70;99.90
12588;DHT22;6359;51.450;7.346;2023-02-21T00:34:42;7.60;99.90
12588;DHT22;6359;51.450;7.346;2023-02-21T00:37:27;7.60;99.90
12588;DHT22;6359;51.450;7.346;2023-02-21T00:40:13;7.60;99.90
12588;DHT22;6359;51.450;7.346;2023-02-21T00:42:59;7.60;99.90
12588;DHT22;6359;51.450;7.346;2023-02-21T00:45:43;7.60;99.90
12588;DHT22;6359;51.450;7.346;2023-02-21T00:48:28;7.60;99.90
12588;DHT22;6359;51.450;7.346;2023-02-21T00:51:13;7.60;99.90
12588;DHT22;6359;51.450;7.346;2023-02-21T00:53:57;7.60;99.90
12588;DHT22;6359;51.450;7.346;2023-02-21T00:56:41;7.60;99.90
12588;DHT22;6359;51.450;7.346;2023-02-21T00:59:28;7.60;99.90
12588;DHT22;6359;51.450;7.346;2023-02-21T01:02:13;7.50;99.90
12588;DHT22;6359;51.450;7.346;2023-02-21T01:04:58;7.60;99.90
12588;DHT22;6359;51.450;7.346;2023-02-21T01:07:42;7.60;99.90
12588;DHT22;6359;51.450;7.346;2023-02-21T01:10:27;7.50;99.90
12588;DHT22;6359;51.450;7.346;2023-02-21T01:13:11;7.50;99.90
12588;DHT22;6359;51.450;7.346;2023-02-21T01:15:57;7.50;99.90
12588;DHT22;6359;51.450;7.346;2023-02-21T01:18:41;7.50;99.90
12588;DHT22;6359;51.450;7.346;2023-02-21T01:21:25;7.50;99.90
12588;DHT22;6359;51.450;7.346;2023-02-21T01:24:13;7.40;99.90
12588;DHT22;6359;51.450;7.346;2023-02-21T01:26:58;7.40;99.90
12588;DHT22;6359;51.450;7.346;2023-02-21T01:29:43;7.40;99.90
12588;DHT22;6359;51.450;7.346;2023-02-21T01:32:29;7.40;99.90
12588;DHT22;6359;51.450;7.346;2023-02-21T01:35:13;7.40;99.90
12588;DHT22;6359;51.450;7.346;2023-02-21T01:37:57;7.40;99.90
12588;DHT22;6359;51.450;7.346;2023-02-21T01:40:41;7.40;99.90
12588;DHT22;6359;51.450;7.346;2023-02-21T01:43:26;7.40;99.90
12588;DHT22;6359;51.450;7.346;2023-02-21T01:46:12;7.40;99.90
12588;DHT22;6359;51.450;7.346;2023-02-21T01:49:02;7.40;99.90
12588;DHT22;6359;51.450;7.346;2023-02-21T01:51:48;7.40;99.90
12588;DHT22;6359;51.450;7.346;2023-02-21T01:54:38;7.40;99.90
12588;DHT22;6359;51.450;7.346;2023-02-21T01:57:23;7.30;99.90
12588;DHT22;6359;51.450;7.346;2023-02-21T02:00:10;7.30;99.90
12588;DHT22;6359;51.450;7.346;2023-02-21T02:02:59;7.30;99.90
12588;DHT22;6359;51.450;7.346;2023-02-21T02:05:49;7.30;99.90
12588;DHT22;6359;51.450;7.346;2023-02-21T02:08:35;7.30;99.90
12588;DHT22;6359;51.450;7.346;2023-02-21T02:11:31;7.20;99.90
12588;DHT22;6359;51.450;7.346;2023-02-21T02:14:30;7.30;99.90
12588;DHT22;6359;51.450;7.346;2023-02-21T02:17:04;7.30;99.90
12588;DHT22;6359;51.450;7.346;2023-02-21T02:25:57;7.40;99.90
12588;DHT22;6359;51.450;7.346;2023-02-21T02:28:45;7.30;99.90
12588;DHT22;6359;51.450;7.346;2023-02-21T02:31:36;7.30;99.90
12588;DHT22;6359;51.450;7.346;2023-02-21T02:34:28;7.20;99.90
12588;DHT22;6359;51.450;7.346;2023-02-21T02:37:06;7.30;99.90
12588;DHT22;6359;51.450;7.346;2023-02-21T02:39:40;7.30;99.90
12588;DHT22;6359;51.450;7.346;2023-02-21T02:42:18;7.30;99.90
12588;DHT22;6359;51.450;7.346;2023-02-21T02:44:52;7.30;99.90
12588;DHT22;6359;51.450;7.346;2023-02-21T02:47:24;7.30;99.90
12588;DHT22;6359;51.450;7.346;2023-02-21T02:49:54;7.40;99.90
12588;DHT22;6359;51.450;7.346;2023-02-21T02:52:23;7.40;99.90
12588;DHT22;6359;51.450;7.346;2023-02-21T02:54:58;7.30;99.90
12588;DHT22;6359;51.450;7.346;2023-02-21T02:57:27;7.40;99.90
12588;DHT22;6359;51.450;7.346;2023-02-21T02:59:54;7.40;99.90
12588;DHT22;6359;51.450;7.346;2023-02-21T03:02:41;7.40;99.90
12588;DHT22;6359;51.450;7.346;2023-02-21T03:05:22;7.40;99.90
12588;DHT22;6359;51.450;7.346;2023-02-21T03:07:58;7.40;99.90
12588;DHT22;6359;51.450;7.346;2023-02-21T03:10:32;7.40;99.90
12588;DHT22;6359;51.450;7.346;2023-02-21T03:13:11;7.40;99.90
12588;DHT22;6359;51.450;7.346;2023-02-21T03:15:44;7.40;99.90
12588;DHT22;6359;51.450;7.346;2023-02-21T03:18:17;7.30;99.90
12588;DHT22;6359;51.450;7.346;2023-02-21T03:20:51;7.30;99.90
12588;DHT22;6359;51.450;7.346;2023-02-21T03:23:21;7.40;99.90
12588;DHT22;6359;51.450;7.346;2023-02-21T03:25:51;7.30;99.90
12588;DHT22;6359;51.450;7.346;2023-02-21T03:28:19;7.30;99.90
12588;DHT22;6359;51.450;7.346;2023-02-21T03:30:51;7.40;99.90
12588;DHT22;6359;51.450;7.346;2023-02-21T03:33:19;7.40;99.90
12588;DHT22;6359;51.450;7.346;2023-02-21T03:35:48;7.40;99.90
12588;DHT22;6359;51.450;7.346;2023-02-21T03:38:15;7.40;99.90
12588;DHT22;6359;51.450;7.346;2023-02-21T03:40:42;7.40;99.90
12588;DHT22;6359;51.450;7.346;2023-02-21T03:43:09;7.40;99.90
12588;DHT22;6359;51.450;7.346;2023-02-21T03:45:36;7.40;99.90
12588;DHT22;6359;51.450;7.346;2023-02-21T03:48:03;7.40;99.90
12588;DHT22;6359;51.450;7.346;2023-02-21T03:50:31;7.30;99.90
12588;DHT22;6359;51.450;7.346;2023-02-21T03:52:59;7.30;99.90
12588;DHT22;6359;51.450;7.346;2023-02-21T03:55:26;7.30;99.90
12588;DHT22;6359;51.450;7.346;2023-02-21T03:57:53;7.30;99.90
12588;DHT22;6359;51.450;7.346;2023-02-21T04:00:21;7.40;99.90
12588;DHT22;6359;51.450;7.346;2023-02-21T04:02:48;7.40;99.90
12588;DHT22;6359;51.450;7.346;2023-02-21T04:05:15;7.40;99.90
12588;DHT22;6359;51.450;7.346;2023-02-21T04:07:42;7.40;99.90
12588;DHT22;6359;51.450;7.346;2023-02-21T04:10:10;7.40;99.90
12588;DHT22;6359;51.450;7.346;2023-02-21T04:12:37;7.40;99.90
12588;DHT22;6359;51.450;7.346;2023-02-21T04:15:05;7.40;99.90
12588;DHT22;6359;51.450;7.346;2023-02-21T04:17:32;7.40;99.90
12588;DHT22;6359;51.450;7.346;2023-02-21T04:19:59;7.50;99.90
12588;DHT22;6359;51.450;7.346;2023-02-21T04:22:26;7.50;99.90
12588;DHT22;6359;51.450;7.346;2023-02-21T04:24:53;7.40;99.90
12588;DHT22;6359;51.450;7.346;2023-02-21T04:27:22;7.40;99.90
12588;DHT22;6359;51.450;7.346;2023-02-21T04:29:49;7.40;99.90
12588;DHT22;6359;51.450;7.346;2023-02-21T04:32:16;7.40;99.90
12588;DHT22;6359;51.450;7.346;2023-02-21T04:34:43;7.40;99.90
12588;DHT22;6359;51.450;7.346;2023-02-21T04:37:10;7.40;99.90
12588;DHT22;6359;51.450;7.346;2023-02-21T04:39:37;7.40;99.90
12588;DHT22;6359;51.450;7.346;2023-02-21T04:42:04;7.50;99.90
12588;DHT22;6359;51.450;7.346;2023-02-21T04:44:33;7.60;99.90
12588;DHT22;6359;51.450;7.346;2023-02-21T04:47:00;7.60;99.90
12588;DHT22;6359;51.450;7.346;2023-02-21T04:49:27;7.60;99.90
12588;DHT22;6359;51.450;7.346;2023-02-21T04:51:54;7.50;99.90
12588;DHT22;6359;51.450;7.346;2023-02-21T04:54:21;7.40;99.90
12588;DHT22;6359;51.450;7.346;2023-02-21T04:56:48;7.40;99.90
12588;DHT22;6359;51.450;7.346;2023-02-21T04:59:15;7.40;99.90
12588;DHT22;6359;51.450;7.346;2023-02-21T05:01:43;7.30;99.90
12588;DHT22;6359;51.450;7.346;2023-02-21T05:04:10;7.40;99.90
12588;DHT22;6359;51.450;7.346;2023-02-21T05:06:38;7.30;99.90
12588;DHT22;6359;51.450;7.346;2023-02-21T05:09:05;7.30;99.90
12588;DHT22;6359;51.450;7.346;2023-02-21T05:11:33;7.40;99.90
12588;DHT22;6359;51.450;7.346;2023-02-21T05:14:00;7.40;99.90
12588;DHT22;6359;51.450;7.346;2023-02-21T05:16:28;7.40;99.90
12588;DHT22;6359;51.450;7.346;2023-02-21T05:18:56;7.40;99.90
12588;DHT22;6359;51.450;7.346;2023-02-21T05:21:24;7.40;99.90
12588;DHT22;6359;51.450;7.346;2023-02-21T05:23:51;7.40;99.90
12588;DHT22;6359;51.450;7.346;2023-02-21T05:26:25;7.40;99.90
12588;DHT22;6359;51.450;7.346;2023-02-21T05:28:54;7.30;99.90
12588;DHT22;6359;51.450;7.346;2023-02-21T05:31:21;7.30;99.90
12588;DHT22;6359;51.450;7.346;2023-02-21T05:33:48;7.40;99.90
12588;DHT22;6359;51.450;7.346;2023-02-21T05:36:17;7.40;99.90
12588;DHT22;6359;51.450;7.346;2023-02-21T05:38:45;7.40;99.90
12588;DHT22;6359;51.450;7.346;2023-02-21T05:41:12;7.30;99.90
12588;DHT22;6359;51.450;7.346;2023-02-21T05:43:39;7.30;99.90
12588;DHT22;6359;51.450;7.346;2023-02-21T05:46:18;7.40;99.90
12588;DHT22;6359;51.450;7.346;2023-02-21T05:48:45;7.40;99.90
12588;DHT22;6359;51.450;7.346;2023-02-21T05:51:13;7.40;99.90
12588;DHT22;6359;51.450;7.346;2023-02-21T05:53:42;7.40;99.90
12588;DHT22;6359;51.450;7.346;2023-02-21T05:56:09;7.40;99.90
12588;DHT22;6359;51.450;7.346;2023-02-21T05:58:36;7.40;99.90
12588;DHT22;6359;51.450;7.346;2023-02-21T06:01:05;7.40;99.90
12588;DHT22;6359;51.450;7.346;2023-02-21T06:03:32;7.40;99.90
12588;DHT22;6359;51.450;7.346;2023-02-21T06:05:59;7.50;99.90
12588;DHT22;6359;51.450;7.346;2023-02-21T06:08:26;7.50;99.90
12588;DHT22;6359;51.450;7.346;2023-02-21T06:10:54;7.50;99.90
12588;DHT22;6359;51.450;7.346;2023-02-21T06:13:21;7.50;99.90
12588;DHT22;6359;51.450;7.346;2023-02-21T06:15:48;7.60;99.90
12588;DHT22;6359;51.450;7.346;2023-02-21T06:18:16;7.60;99.90
12588;DHT22;6359;51.450;7.346;2023-02-21T06:20:43;7.60;99.90
12588;DHT22;6359;51.450;7.346;2023-02-21T06:23:10;7.50;99.90
12588;DHT22;6359;51.450;7.346;2023-02-21T06:25:38;7.60;99.90
12588;DHT22;6359;51.450;7.346;2023-02-21T06:28:07;7.60;99.90
12588;DHT22;6359;51.450;7.346;2023-02-21T06:30:34;7.60;99.90
12588;DHT22;6359;51.450;7.346;2023-02-21T06:33:01;7.60;99.90
12588;DHT22;6359;51.450;7.346;2023-02-21T06:35:28;7.70;99.90
12588;DHT22;6359;51.450;7.346;2023-02-21T06:37:55;7.70;99.90
12588;DHT22;6359;51.450;7.346;2023-02-21T06:40:22;7.70;99.90
12588;DHT22;6359;51.450;7.346;2023-02-21T06:42:49;7.70;99.90
12588;DHT22;6359;51.450;7.346;2023-02-21T06:45:17;7.70;99.90
12588;DHT22;6359;51.450;7.346;2023-02-21T06:47:44;7.60;99.90
12588;DHT22;6359;51.450;7.346;2023-02-21T06:50:11;7.60;99.90
12588;DHT22;6359;51.450;7.346;2023-02-21T06:52:38;7.60;99.90
12588;DHT22;6359;51.450;7.346;2023-02-21T06:55:06;7.50;99.90
12588;DHT22;6359;51.450;7.346;2023-02-21T06:57:33;7.50;99.90
12588;DHT22;6359;51.450;7.346;2023-02-21T07:00:00;7.60;99.90
12588;DHT22;6359;51.450;7.346;2023-02-21T07:02:28;7.50;99.90
12588;DHT22;6359;51.450;7.346;2023-02-21T07:04:57;7.60;99.90
12588;DHT22;6359;51.450;7.346;2023-02-21T07:07:26;7.60;99.90
12588;DHT22;6359;51.450;7.346;2023-02-21T07:09:54;7.60;99.90
12588;DHT22;6359;51.450;7.346;2023-02-21T07:12:20;7.60;99.90
12588;DHT22;6359;51.450;7.346;2023-02-21T07:14:48;7.60;99.90
12588;DHT22;6359;51.450;7.346;2023-02-21T07:17:15;7.60;99.90
12588;DHT22;6359;51.450;7.346;2023-02-21T07:19:43;7.60;99.90
12588;DHT22;6359;51.450;7.346;2023-02-21T07:22:10;7.50;99.90
12588;DHT22;6359;51.450;7.346;2023-02-21T07:24:37;7.50;99.90
12588;DHT22;6359;51.450;7.346;2023-02-21T07:27:06;7.60;99.90
12588;DHT22;6359;51.450;7.346;2023-02-21T07:29:33;7.60;99.90
12588;DHT22;6359;51.450;7.346;2023-02-21T07:32:00;7.70;99.90
12588;DHT22;6359;51.450;7.346;2023-02-21T07:34:27;7.70;99.90
12588;DHT22;6359;51.450;7.346;2023-02-21T07:36:55;7.60;99.90
12588;DHT22;6359;51.450;7.346;2023-02-21T07:39:22;7.70;99.90
12588;DHT22;6359;51.450;7.346;2023-02-21T07:41:49;7.60;99.90
12588;DHT22;6359;51.450;7.346;2023-02-21T07:44:17;7.60;99.90
12588;DHT22;6359;51.450;7.346;2023-02-21T07:46:44;7.60;99.90
12588;DHT22;6359;51.450;7.346;2023-02-21T07:49:11;7.70;99.90
12588;DHT22;6359;51.450;7.346;2023-02-21T07:51:38;7.70;99.90
12588;DHT22;6359;51.450;7.346;2023-02-21T07:54:07;7.70;99.90
12588;DHT22;6359;51.450;7.346;2023-02-21T07:56:34;7.80;99.90
12588;DHT22;6359;51.450;7.346;2023-02-21T07:59:01;7.80;99.90
12588;DHT22;6359;51.450;7.346;2023-02-21T08:01:28;7.80;99.90
12588;DHT22;6359;51.450;7.346;2023-02-21T08:03:55;7.80;99.90
12588;DHT22;6359;51.450;7.346;2023-02-21T08:06:22;7.80;99.90
12588;DHT22;6359;51.450;7.346;2023-02-21T08:15:35;7.80;99.90
12588;DHT22;6359;51.450;7.346;2023-02-21T08:18:02;7.90;99.90
12588;DHT22;6359;51.450;7.346;2023-02-21T08:20:29;7.70;99.90
12588;DHT22;6359;51.450;7.346;2023-02-21T08:22:56;7.80;99.90
12588;DHT22;6359;51.450;7.346;2023-02-21T08:25:23;7.70;99.90
12588;DHT22;6359;51.450;7.346;2023-02-21T08:27:50;7.80;99.90
12588;DHT22;6359;51.450;7.346;2023-02-21T08:30:19;7.70;99.90
12588;DHT22;6359;51.450;7.346;2023-02-21T08:32:48;7.80;99.90
12588;DHT22;6359;51.450;7.346;2023-02-21T08:35:16;7.70;99.90
12588;DHT22;6359;51.450;7.346;2023-02-21T08:37:44;7.70;99.90
12588;DHT22;6359;51.450;7.346;2023-02-21T08:40:12;7.70;99.90
12588;DHT22;6359;51.450;7.346;2023-02-21T08:42:39;7.70;99.90
12588;DHT22;6359;51.450;7.346;2023-02-21T08:45:07;7.60;99.90
12588;DHT22;6359;51.450;7.346;2023-02-21T08:47:35;7.50;99.90
12588;DHT22;6359;51.450;7.346;2023-02-21T08:50:05;7.50;99.90
12588;DHT22;6359;51.450;7.346;2023-02-21T08:52:32;7.60;99.90
12588;DHT22;6359;51.450;7.346;2023-02-21T08:54:59;7.50;99.90
12588;DHT22;6359;51.450;7.346;2023-02-21T08:57:26;7.50;99.90
12588;DHT22;6359;51.450;7.346;2023-02-21T08:59:52;7.50;99.90
12588;DHT22;6359;51.450;7.346;2023-02-21T09:02:21;7.60;99.90
12588;DHT22;6359;51.450;7.346;2023-02-21T09:04:50;7.60;99.90
12588;DHT22;6359;51.450;7.346;2023-02-21T09:07:20;7.70;99.90
12588;DHT22;6359;51.450;7.346;2023-02-21T09:09:48;7.70;99.90
12588;DHT22;6359;51.450;7.346;2023-02-21T09:12:15;7.80;99.90
12588;DHT22;6359;51.450;7.346;2023-02-21T09:14:43;7.70;99.90
12588;DHT22;6359;51.450;7.346;2023-02-21T09:17:12;7.70;99.90
12588;DHT22;6359;51.450;7.346;2023-02-21T09:19:40;7.80;99.90
12588;DHT22;6359;51.450;7.346;2023-02-21T09:22:08;7.80;99.90
12588;DHT22;6359;51.450;7.346;2023-02-21T09:24:37;7.90;99.90
12588;DHT22;6359;51.450;7.346;2023-02-21T09:27:05;7.90;99.90
12588;DHT22;6359;51.450;7.346;2023-02-21T09:29:33;7.90;99.90
12588;DHT22;6359;51.450;7.346;2023-02-21T09:32:01;8.00;99.90
12588;DHT22;6359;51.450;7.346;2023-02-21T09:34:28;7.90;99.90
12588;DHT22;6359;51.450;7.346;2023-02-21T09:36:56;7.80;99.90
12588;DHT22;6359;51.450;7.346;2023-02-21T09:39:24;7.80;99.90
12588;DHT22;6359;51.450;7.346;2023-02-21T09:41:52;7.80;99.90
12588;DHT22;6359;51.450;7.346;2023-02-21T09:44:23;7.90;99.90
12588;DHT22;6359;51.450;7.346;2023-02-21T09:46:54;8.00;99.90
12588;DHT22;6359;51.450;7.346;2023-02-21T09:49:24;7.90;99.90
12588;DHT22;6359;51.450;7.346;2023-02-21T09:51:52;7.90;99.90
12588;DHT22;6359;51.450;7.346;2023-02-21T09:54:25;7.90;99.90
12588;DHT22;6359;51.450;7.346;2023-02-21T09:56:56;7.70;99.90
12588;DHT22;6359;51.450;7.346;2023-02-21T09:59:25;7.70;99.90
12588;DHT22;6359;51.450;7.346;2023-02-21T10:02:00;7.80;99.90
12588;DHT22;6359;51.450;7.346;2023-02-21T10:04:36;7.90;99.90
12588;DHT22;6359;51.450;7.346;2023-02-21T10:07:12;7.90;99.90
12588;DHT22;6359;51.450;7.346;2023-02-21T10:09:44;7.90;99.90
12588;DHT22;6359;51.450;7.346;2023-02-21T10:12:19;7.90;99.90
12588;DHT22;6359;51.450;7.346;2023-02-21T10:15:01;8.00;99.90
12588;DHT22;6359;51.450;7.346;2023-02-21T10:17:34;8.00;99.90
12588;DHT22;6359;51.450;7.346;2023-02-21T10:20:14;8.00;99.90
12588;DHT22;6359;51.450;7.346;2023-02-21T10:22:44;8.10;99.90
12588;DHT22;6359;51.450;7.346;2023-02-21T10:25:20;8.00;99.90
12588;DHT22;6359;51.450;7.346;2023-02-21T10:27:51;7.90;99.90
12588;DHT22;6359;51.450;7.346;2023-02-21T10:30:25;8.00;99.90
12588;DHT22;6359;51.450;7.346;2023-02-21T10:32:53;8.00;99.90
12588;DHT22;6359;51.450;7.346;2023-02-21T10:35:21;8.00;99.90
12588;DHT22;6359;51.450;7.346;2023-02-21T10:37:50;8.00;99.90
12588;DHT22;6359;51.450;7.346;2023-02-21T10:40:26;8.10;99.90
12588;DHT22;6359;51.450;7.346;2023-02-21T10:43:00;8.20;99.90
12588;DHT22;6359;51.450;7.346;2023-02-21T10:45:33;8.20;99.90
12588;DHT22;6359;51.450;7.346;2023-02-21T10:48:03;8.30;99.90
12588;DHT22;6359;51.450;7.346;2023-02-21T10:50:39;8.30;99.90
12588;DHT22;6359;51.450;7.346;2023-02-21T10:53:09;8.30;99.90
12588;DHT22;6359;51.450;7.346;2023-02-21T10:56:19;8.20;99.90
12588;DHT22;6359;51.450;7.346;2023-02-21T10:58:49;8.40;99.90
12588;DHT22;6359;51.450;7.346;2023-02-21T11:01:19;8.40;99.90
12588;DHT22;6359;51.450;7.346;2023-02-21T11:03:48;8.40;99.90
12588;DHT22;6359;51.450;7.346;2023-02-21T11:06:23;8.40;99.90
12588;DHT22;6359;51.450;7.346;2023-02-21T11:08:51;8.50;99.90
12588;DHT22;6359;51.450;7.346;2023-02-21T11:11:31;8.60;99.90
12588;DHT22;6359;51.450;7.346;2023-02-21T11:14:23;8.50;99.90
12588;DHT22;6359;51.450;7.346;2023-02-21T11:17:16;8.50;99.90
12588;DHT22;6359;51.450;7.346;2023-02-21T11:19:47;8.40;99.90
12588;DHT22;6359;51.450;7.346;2023-02-21T11:22:17;8.40;99.90
12588;DHT22;6359;51.450;7.346;2023-02-21T11:24:56;8.30;99.90
12588;DHT22;6359;51.450;7.346;2023-02-21T11:27:24;8.30;99.90
12588;DHT22;6359;51.450;7.346;2023-02-21T11:29:53;8.30;99.90
12588;DHT22;6359;51.450;7.346;2023-02-21T11:32:27;8.30;99.90
12588;DHT22;6359;51.450;7.346;2023-02-21T11:35:05;8.50;99.90
12588;DHT22;6359;51.450;7.346;2023-02-21T11:37:33;8.70;99.90
12588;DHT22;6359;51.450;7.346;2023-02-21T11:40:00;8.90;99.90
12588;DHT22;6359;51.450;7.346;2023-02-21T11:42:32;9.00;99.90
12588;DHT22;6359;51.450;7.346;2023-02-21T11:45:20;9.10;99.90
12588;DHT22;6359;51.450;7.346;2023-02-21T11:47:55;9.10;99.90
12588;DHT22;6359;51.450;7.346;2023-02-21T11:50:26;9.20;99.90
12588;DHT22;6359;51.450;7.346;2023-02-21T11:53:00;9.30;99.90
12588;DHT22;6359;51.450;7.346;2023-02-21T11:55:29;9.40;99.90
12588;DHT22;6359;51.450;7.346;2023-02-21T11:58:05;9.50;99.90
12588;DHT22;6359;51.450;7.346;2023-02-21T12:00:44;9.60;99.90
12588;DHT22;6359;51.450;7.346;2023-02-21T12:03:45;9.80;99.90
12588;DHT22;6359;51.450;7.346;2023-02-21T12:06:20;9.90;99.90
12588;DHT22;6359;51.450;7.346;2023-02-21T12:08:56;10.00;99.90
12588;DHT22;6359;51.450;7.346;2023-02-21T12:11:36;10.10;99.90
12588;DHT22;6359;51.450;7.346;2023-02-21T12:17:07;10.00;99.90
12588;DHT22;6359;51.450;7.346;2023-02-21T12:19:51;9.90;99.90
12588;DHT22;6359;51.450;7.346;2023-02-21T12:22:31;9.80;99.90
12588;DHT22;6359;51.450;7.346;2023-02-21T12:25:10;9.80;99.90
12588;DHT22;6359;51.450;7.346;2023-02-21T12:27:46;9.70;99.90
12588;DHT22;6359;51.450;7.346;2023-02-21T12:30:24;9.80;99.90
12588;DHT22;6359;51.450;7.346;2023-02-21T12:33:05;9.90;99.90
12588;DHT22;6359;51.450;7.346;2023-02-21T12:35:59;10.00;99.90
12588;DHT22;6359;51.450;7.346;2023-02-21T12:38:42;10.00;99.90
12588;DHT22;6359;51.450;7.346;2023-02-21T12:41:24;10.10;99.90
12588;DHT22;6359;51.450;7.346;2023-02-21T12:44:00;10.30;99.90
12588;DHT22;6359;51.450;7.346;2023-02-21T12:46:34;10.10;99.90
12588;DHT22;6359;51.450;7.346;2023-02-21T12:49:07;10.10;99.90
12588;DHT22;6359;51.450;7.346;2023-02-21T12:51:38;9.90;99.90
12588;DHT22;6359;51.450;7.346;2023-02-21T12:54:11;9.80;99.90
12588;DHT22;6359;51.450;7.346;2023-02-21T12:56:45;9.80;99.90
12588;DHT22;6359;51.450;7.346;2023-02-21T12:59:19;10.00;99.90
12588;DHT22;6359;51.450;7.346;2023-02-21T13:01:49;10.00;99.90
12588;DHT22;6359;51.450;7.346;2023-02-21T13:04:26;9.90;99.90
12588;DHT22;6359;51.450;7.346;2023-02-21T13:07:08;9.90;99.90
12588;DHT22;6359;51.450;7.346;2023-02-21T13:09:48;9.90;99.90
12588;DHT22;6359;51.450;7.346;2023-02-21T13:12:20;9.90;99.90
12588;DHT22;6359;51.450;7.346;2023-02-21T13:14:51;9.90;99.90
12588;DHT22;6359;51.450;7.346;2023-02-21T13:17:21;9.80;99.90
12588;DHT22;6359;51.450;7.346;2023-02-21T13:19:53;9.80;99.90
12588;DHT22;6359;51.450;7.346;2023-02-21T13:25:36;9.70;99.90
12588;DHT22;6359;51.450;7.346;2023-02-21T13:28:11;9.70;99.90
12588;DHT22;6359;51.450;7.346;2023-02-21T13:30:44;9.60;99.90
12588;DHT22;6359;51.450;7.346;2023-02-21T13:33:23;9.60;99.90
12588;DHT22;6359;51.450;7.346;2023-02-21T13:35:56;9.80;99.90
12588;DHT22;6359;51.450;7.346;2023-02-21T13:38:26;9.70;99.90
12588;DHT22;6359;51.450;7.346;2023-02-21T13:41:03;9.70;99.90
12588;DHT22;6359;51.450;7.346;2023-02-21T13:43:33;9.70;99.90
12588;DHT22;6359;51.450;7.346;2023-02-21T13:46:22;9.70;99.90
12588;DHT22;6359;51.450;7.346;2023-02-21T13:51:52;9.70;99.90
12588;DHT22;6359;51.450;7.346;2023-02-21T13:54:23;9.70;99.90
12588;DHT22;6359;51.450;7.346;2023-02-21T13:56:51;9.60;99.90
12588;DHT22;6359;51.450;7.346;2023-02-21T13:59:36;9.60;99.90
12588;DHT22;6359;51.450;7.346;2023-02-21T14:02:20;9.60;99.90
12588;DHT22;6359;51.450;7.346;2023-02-21T14:05:01;9.50;99.90
12588;DHT22;6359;51.450;7.346;2023-02-21T14:07:49;9.40;99.90
12588;DHT22;6359;51.450;7.346;2023-02-21T14:10:36;9.50;99.90
12588;DHT22;6359;51.450;7.346;2023-02-21T14:13:06;9.50;99.90
12588;DHT22;6359;51.450;7.346;2023-02-21T14:15:40;9.60;99.90
12588;DHT22;6359;51.450;7.346;2023-02-21T14:18:17;9.60;99.90
12588;DHT22;6359;51.450;7.346;2023-02-21T14:20:48;9.60;99.90
12588;DHT22;6359;51.450;7.346;2023-02-21T14:23:19;9.60;99.90
12588;DHT22;6359;51.450;7.346;2023-02-21T14:25:57;9.60;99.90
12588;DHT22;6359;51.450;7.346;2023-02-21T14:29:00;9.70;99.90
12588;DHT22;6359;51.450;7.346;2023-02-21T14:31:51;9.70;99.90
12588;DHT22;6359;51.450;7.346;2023-02-21T14:34:23;9.60;99.90
12588;DHT22;6359;51.450;7.346;2023-02-21T14:36:55;9.60;99.90
12588;DHT22;6359;51.450;7.346;2023-02-21T14:39:30;9.60;99.90
12588;DHT22;6359;51.450;7.346;2023-02-21T14:42:12;9.40;99.90
12588;DHT22;6359;51.450;7.346;2023-02-21T14:44:57;9.30;99.90
12588;DHT22;6359;51.450;7.346;2023-02-21T14:47:44;9.20;99.90
12588;DHT22;6359;51.450;7.346;2023-02-21T14:50:24;9.10;99.90
12588;DHT22;6359;51.450;7.346;2023-02-21T14:53:19;9.20;99.90
12588;DHT22;6359;51.450;7.346;2023-02-21T14:59:04;9.20;99.90
12588;DHT22;6359;51.450;7.346;2023-02-21T15:01:43;9.20;99.90
12588;DHT22;6359;51.450;7.346;2023-02-21T15:04:16;9.20;99.90
12588;DHT22;6359;51.450;7.346;2023-02-21T15:06:56;9.20;99.90
12588;DHT22;6359;51.450;7.346;2023-02-21T15:09:26;9.30;99.90
12588;DHT22;6359;51.450;7.346;2023-02-21T15:11:53;9.30;99.90
12588;DHT22;6359;51.450;7.346;2023-02-21T15:14:24;9.30;99.90
12588;DHT22;6359;51.450;7.346;2023-02-21T15:16:53;9.30;99.90
12588;DHT22;6359;51.450;7.346;2023-02-21T15:19:28;9.20;99.90
12588;DHT22;6359;51.450;7.346;2023-02-21T15:22:06;9.20;99.90
12588;DHT22;6359;51.450;7.346;2023-02-21T15:24:33;9.10;99.90
12588;DHT22;6359;51.450;7.346;2023-02-21T15:27:08;9.10;99.90
12588;DHT22;6359;51.450;7.346;2023-02-21T15:29:37;9.10;99.90
12588;DHT22;6359;51.450;7.346;2023-02-21T15:32:05;9.10;99.90
12588;DHT22;6359;51.450;7.346;2023-02-21T15:34:37;9.00;99.90
12588;DHT22;6359;51.450;7.346;2023-02-21T15:37:12;9.10;99.90
12588;DHT22;6359;51.450;7.346;2023-02-21T15:39:47;9.00;99.90
12588;DHT22;6359;51.450;7.346;2023-02-21T15:42:17;8.90;99.90
12588;DHT22;6359;51.450;7.346;2023-02-21T15:44:48;8.90;99.90
12588;DHT22;6359;51.450;7.346;2023-02-21T15:47:18;8.70;99.90
12588;DHT22;6359;51.450;7.346;2023-02-21T15:49:58;8.80;99.90
12588;DHT22;6359;51.450;7.346;2023-02-21T15:52:28;8.70;99.90
12588;DHT22;6359;51.450;7.346;2023-02-21T15:55:13;8.70;99.90
12588;DHT22;6359;51.450;7.346;2023-02-21T15:57:41;8.60;99.90
12588;DHT22;6359;51.450;7.346;2023-02-21T16:00:24;8.70;99.90
12588;DHT22;6359;51.450;7.346;2023-02-21T16:02:51;8.70;99.90
12588;DHT22;6359;51.450;7.346;2023-02-21T16:05:26;8.80;99.90
12588;DHT22;6359;51.450;7.346;2023-02-21T16:07:59;8.70;99.90
12588;DHT22;6359;51.450;7.346;2023-02-21T16:10:29;8.70;99.90
12588;DHT22;6359;51.450;7.346;2023-02-21T16:12:58;8.70;99.90
12588;DHT22;6359;51.450;7.346;2023-02-21T16:15:29;8.70;99.90
12588;DHT22;6359;51.450;7.346;2023-02-21T16:17:58;8.60;99.90
12588;DHT22;6359;51.450;7.346;2023-02-21T16:20:31;8.60;99.90
12588;DHT22;6359;51.450;7.346;2023-02-21T16:23:22;8.60;99.90
12588;DHT22;6359;51.450;7.346;2023-02-21T16:25:58;8.60;99.90
12588;DHT22;6359;51.450;7.346;2023-02-21T16:28:26;8.50;99.90
12588;DHT22;6359;51.450;7.346;2023-02-21T16:30:55;8.50;99.90
12588;DHT22;6359;51.450;7.346;2023-02-21T16:33:23;8.50;99.90
12588;DHT22;6359;51.450;7.346;2023-02-21T16:35:51;8.50;99.90
12588;DHT22;6359;51.450;7.346;2023-02-21T16:38:20;8.50;99.90
12588;DHT22;6359;51.450;7.346;2023-02-21T16:40:48;8.50;99.90
12588;DHT22;6359;51.450;7.346;2023-02-21T16:43:16;8.50;99.90
12588;DHT22;6359;51.450;7.346;2023-02-21T16:45:44;8.50;99.90
12588;DHT22;6359;51.450;7.346;2023-02-21T16:48:17;8.40;99.90
12588;DHT22;6359;51.450;7.346;2023-02-21T16:50:48;8.40;99.90
12588;DHT22;6359;51.450;7.346;2023-02-21T16:53:16;8.30;99.90
12588;DHT22;6359;51.450;7.346;2023-02-21T16:55:44;8.20;99.90
12588;DHT22;6359;51.450;7.346;2023-02-21T16:58:20;8.30;99.90
12588;DHT22;6359;51.450;7.346;2023-02-21T17:00:51;8.30;99.90
12588;DHT22;6359;51.450;7.346;2023-02-21T17:03:20;8.30;99.90
12588;DHT22;6359;51.450;7.346;2023-02-21T17:05:47;8.20;99.90
12588;DHT22;6359;51.450;7.346;2023-02-21T17:08:15;8.20;99.90